Terminal Aerodrome Forecast
Issued by NWS Louisville, KY

Home | Current Version | Previous Version | Text Only | Print | Product List | Glossary On
Versions: 1 2 3 4 5 6 7 8 9 10 11 12 13 14 15
000
FTUS43 KLMK 260500
TAFLEX
TAF
KLEX 260524Z 2606/2706 05011KT 5SM BR OVC006
     FM261400 03011KT P6SM OVC012
     FM261700 03009KT P6SM BKN025
     FM261800 02009KT P6SM SCT035=

USA.gov is the U.S. government's official web portal to all federal, state and local government web resources and services.